Ludington, Michigan
Current Conditions -  °F | °C
As of 8:34 PM on Monday 22 Dec 2014 (Local Time) from KLDM Reporting Station
Unknown Precip Unknown Precip  
Wind Chill: 27°   Ceiling: 3500
Heat Index: 36°   Visibility: 4mi
Dew Point: 32°   Wind: 13mph
Humidity: 88%   Direction: 100°E
Pressure: 29.81"   Gusts: NA
Location:  43.96°N, 86.45°W
Report Text: KLDM 230134Z AUTO 10011KT 4SM UP SCT012 OVC035 02/00 A2981 RMK AO2 P0002 T00200002
Loading
Personal Weather Stations






























Interactive Weather Map New forecast layout! Learn more

10-Day Weather Forecast

Advertisements
Track Severe Weather on mobile